createdAt,value
2022-11-22T00:00:40.784Z,94.11
2022-11-22T00:03:08.147Z,94.36
2022-11-22T00:05:35.355Z,94.66
2022-11-22T00:08:02.498Z,94.63
2022-11-22T00:10:29.214Z,94.53
2022-11-22T00:12:56.436Z,94.83
2022-11-22T00:15:23.158Z,94.91
2022-11-22T00:17:51.124Z,95.10
2022-11-22T00:20:17.896Z,94.81
2022-11-22T00:22:45.217Z,94.74
2022-11-22T00:25:13.066Z,95.29
2022-11-22T00:27:39.808Z,95.29
2022-11-22T00:30:07.771Z,95.14
2022-11-22T00:32:34.609Z,95.22
2022-11-22T00:35:01.316Z,95.48
2022-11-22T00:37:28.062Z,95.25
2022-11-22T00:39:54.821Z,95.57
2022-11-22T00:42:21.518Z,95.65
2022-11-22T00:44:48.275Z,95.72
2022-11-22T00:47:14.980Z,95.88
2022-11-22T00:49:41.697Z,95.52
2022-11-22T00:52:08.509Z,95.89
2022-11-22T00:54:35.244Z,96.33
2022-11-22T00:57:01.976Z,95.96
2022-11-22T00:59:29.073Z,96.16
2022-11-22T01:01:56.068Z,96.25
2022-11-22T01:04:22.941Z,96.01
2022-11-22T01:06:49.676Z,95.99
2022-11-22T01:09:22.192Z,95.93
2022-11-22T01:11:49.686Z,96.31
2022-11-22T01:14:17.488Z,96.33
2022-11-22T01:16:44.781Z,96.59
2022-11-22T01:19:11.546Z,96.29
2022-11-22T01:21:39.177Z,96.77
2022-11-22T01:24:08.278Z,96.71
2022-11-22T01:26:35.302Z,96.45
2022-11-22T01:29:02.635Z,96.84
2022-11-22T01:31:30.205Z,96.46
2022-11-22T01:33:58.974Z,96.88
2022-11-22T01:36:26.691Z,96.71
2022-11-22T01:38:53.520Z,96.85
2022-11-22T01:41:20.675Z,96.90
2022-11-22T01:43:47.436Z,96.61
2022-11-22T01:46:26.524Z,97.00
2022-11-22T01:49:00.336Z,96.64
2022-11-22T01:51:37.114Z,96.67
2022-11-22T01:54:09.733Z,96.62
2022-11-22T01:56:38.660Z,97.16
2022-11-22T01:59:10.858Z,97.04
2022-11-22T02:01:37.952Z,96.97
2022-11-22T02:04:09.170Z,96.93
2022-11-22T02:06:59.763Z,97.25
2022-11-22T02:09:28.262Z,97.24
2022-11-22T02:11:58.477Z,97.33
2022-11-22T02:14:27.595Z,97.36
2022-11-22T02:16:55.013Z,97.30
2022-11-22T02:19:38.788Z,96.80
2022-11-22T02:22:23.747Z,96.79
2022-11-22T02:24:57.174Z,97.04
2022-11-22T02:27:24.279Z,96.99
2022-11-22T02:29:51.087Z,97.12
2022-11-22T02:32:18.074Z,97.15
2022-11-22T02:34:47.320Z,97.18
2022-11-22T02:37:19.263Z,97.11
2022-11-22T02:39:48.378Z,97.32
2022-11-22T02:42:15.150Z,97.38
2022-11-22T02:44:42.283Z,97.25
2022-11-22T02:47:09.160Z,97.18
2022-11-22T02:49:35.901Z,97.53
2022-11-22T02:52:02.640Z,97.58
2022-11-22T02:54:29.364Z,97.36
2022-11-22T02:56:56.167Z,97.72
2022-11-22T02:59:24.193Z,97.78
2022-11-22T03:01:50.980Z,98.03
2022-11-22T03:04:26.933Z,97.81
2022-11-22T03:06:58.176Z,97.50
2022-11-22T03:09:26.420Z,97.66
2022-11-22T03:11:54.352Z,98.01
2022-11-22T03:14:21.776Z,98.18
2022-11-22T03:16:49.990Z,97.82
2022-11-22T03:19:17.255Z,98.13
2022-11-22T03:21:44.054Z,98.21
2022-11-22T03:24:11.440Z,97.97
2022-11-22T03:26:38.808Z,98.11
2022-11-22T03:29:06.678Z,97.89
2022-11-22T03:31:33.411Z,97.92
2022-11-22T03:34:00.205Z,98.28
2022-11-22T03:36:26.946Z,98.07
2022-11-22T03:38:53.629Z,97.90
2022-11-22T03:41:20.358Z,98.55
2022-11-22T03:43:47.130Z,98.18
2022-11-22T03:46:16.004Z,98.50
2022-11-22T03:48:42.821Z,98.49
2022-11-22T03:51:09.692Z,98.50
2022-11-22T03:53:36.555Z,98.89
2022-11-22T03:56:03.544Z,98.67
2022-11-22T03:58:30.702Z,98.58
2022-11-22T04:00:57.985Z,98.58
2022-11-22T04:03:25.152Z,98.70
2022-11-22T04:05:51.882Z,98.39
2022-11-22T04:08:18.689Z,98.74
2022-11-22T04:10:45.463Z,98.45
2022-11-22T04:13:12.181Z,98.76
2022-11-22T04:15:38.850Z,98.43
2022-11-22T04:18:09.011Z,98.80
2022-11-22T04:20:54.207Z,98.63
2022-11-22T04:23:22.649Z,98.56
2022-11-22T04:25:51.874Z,98.46
2022-11-22T04:28:35.327Z,98.68
2022-11-22T04:31:29.641Z,98.77
2022-11-22T04:33:56.340Z,98.54
2022-11-22T04:36:22.996Z,98.57
2022-11-22T04:38:49.734Z,98.90
2022-11-22T04:41:16.442Z,98.72
2022-11-22T04:44:01.918Z,98.88
2022-11-22T04:46:28.594Z,98.86
2022-11-22T04:48:55.345Z,98.76
2022-11-22T04:51:40.586Z,99.12
2022-11-22T04:54:07.394Z,98.96
2022-11-22T04:56:34.074Z,99.25
2022-11-22T04:59:00.783Z,98.85
2022-11-22T05:01:27.578Z,99.06
2022-11-22T05:03:54.419Z,98.92
2022-11-22T05:06:21.136Z,99.19
2022-11-22T05:08:47.850Z,99.29
2022-11-22T05:11:14.609Z,99.48
2022-11-22T05:13:43.068Z,99.56
2022-11-22T05:16:12.552Z,99.28
2022-11-22T05:18:39.788Z,99.57
2022-11-22T05:21:11.780Z,99.62
2022-11-22T05:23:54.640Z,99.52
2022-11-22T05:26:25.653Z,99.41
2022-11-22T05:28:52.514Z,99.63
2022-11-22T05:31:23.360Z,99.66
2022-11-22T05:33:52.668Z,99.59
2022-11-22T05:36:19.939Z,99.60
2022-11-22T05:38:46.855Z,99.65
2022-11-22T05:41:15.503Z,99.39
2022-11-22T05:43:42.452Z,99.63
2022-11-22T05:46:13.656Z,99.75
2022-11-22T05:48:42.795Z,99.71
2022-11-22T05:51:12.313Z,99.63
2022-11-22T05:53:40.006Z,99.91
2022-11-22T05:56:11.670Z,100.00
2022-11-22T05:58:38.783Z,99.74
2022-11-22T06:01:07.497Z,100.00
2022-11-22T06:03:34.967Z,100.00
2022-11-22T06:06:02.465Z,100.00
2022-11-22T06:08:30.885Z,100.00
2022-11-22T06:11:07.598Z,99.93
2022-11-22T06:13:39.172Z,99.84
2022-11-22T06:16:07.626Z,100.00
2022-11-22T06:18:35.186Z,100.00
2022-11-22T06:21:04.472Z,100.00
2022-11-22T06:23:31.736Z,100.00
2022-11-22T06:26:10.509Z,100.00
2022-11-22T06:28:38.827Z,100.00
2022-11-22T06:31:13.113Z,100.00
2022-11-22T06:33:41.792Z,100.00
2022-11-22T06:36:11.948Z,99.98
2022-11-22T06:38:40.131Z,100.00
2022-11-22T06:41:19.204Z,100.00
2022-11-22T06:43:49.270Z,100.00
2022-11-22T06:46:18.854Z,100.00
2022-11-22T06:48:46.215Z,100.00
2022-11-22T06:51:18.519Z,100.00
2022-11-22T06:53:48.268Z,100.00
2022-11-22T06:56:27.645Z,100.00
2022-11-22T06:58:54.957Z,100.00
2022-11-22T07:01:24.633Z,100.00
2022-11-22T07:03:56.180Z,100.00
2022-11-22T07:06:22.947Z,100.00
2022-11-22T07:08:49.699Z,100.00
2022-11-22T07:11:19.845Z,100.00
2022-11-22T07:13:47.882Z,100.00
2022-11-22T07:16:18.270Z,100.00
2022-11-22T07:18:45.191Z,100.00
2022-11-22T07:21:22.833Z,100.00
2022-11-22T07:23:53.287Z,100.00
2022-11-22T07:26:22.053Z,100.00
2022-11-22T07:28:49.069Z,100.00
2022-11-22T07:31:17.344Z,100.00
2022-11-22T07:33:44.878Z,100.00
2022-11-22T07:36:14.414Z,100.00
2022-11-22T07:38:41.491Z,100.00
2022-11-22T07:41:09.149Z,100.00
2022-11-22T07:43:36.184Z,100.00
2022-11-22T07:46:11.695Z,100.00
2022-11-22T07:48:38.368Z,100.00
2022-11-22T07:51:08.679Z,100.00
2022-11-22T07:53:35.974Z,100.00
2022-11-22T07:56:03.982Z,100.00
2022-11-22T07:58:31.089Z,100.00
2022-11-22T08:00:57.809Z,100.00
2022-11-22T08:03:28.897Z,100.00
2022-11-22T08:06:00.728Z,100.00
2022-11-22T08:08:27.803Z,100.00
2022-11-22T08:10:57.009Z,100.00
2022-11-22T08:13:24.607Z,100.00
2022-11-22T08:15:54.460Z,100.00
2022-11-22T08:18:22.914Z,100.00
2022-11-22T08:20:49.678Z,100.00
2022-11-22T08:23:16.360Z,100.00
2022-11-22T08:25:47.158Z,100.00
2022-11-22T08:28:13.947Z,100.00
2022-11-22T08:30:41.113Z,100.00
2022-11-22T08:33:07.851Z,100.00
2022-11-22T08:35:34.667Z,100.00
2022-11-22T08:38:01.409Z,100.00
2022-11-22T08:40:28.149Z,100.00
2022-11-22T08:42:56.362Z,100.00
2022-11-22T08:45:23.143Z,100.00
2022-11-22T08:47:49.891Z,100.00
2022-11-22T08:50:18.291Z,100.00
2022-11-22T08:52:45.023Z,100.00
2022-11-22T08:55:11.770Z,100.00
2022-11-22T08:57:38.428Z,100.00
2022-11-22T09:00:06.805Z,100.00
2022-11-22T09:02:33.609Z,100.00
2022-11-22T09:05:00.452Z,100.00
2022-11-22T09:10:18.311Z,100.00
2022-11-22T09:12:46.129Z,100.00
2022-11-22T09:15:13.232Z,100.00
2022-11-22T09:17:40.283Z,100.00
2022-11-22T09:20:07.833Z,100.00
2022-11-22T09:22:34.813Z,100.00
2022-11-22T09:25:03.612Z,100.00
2022-11-22T09:27:30.658Z,100.00
2022-11-22T09:29:57.377Z,100.00
2022-11-22T09:32:26.210Z,100.00
2022-11-22T09:34:54.919Z,100.00
2022-11-22T09:37:21.668Z,100.00
2022-11-22T09:39:48.869Z,100.00
2022-11-22T09:42:40.453Z,100.00
2022-11-22T09:45:22.277Z,100.00
2022-11-22T09:47:56.231Z,100.00
2022-11-22T09:50:35.267Z,100.00
2022-11-22T09:53:12.316Z,100.00
2022-11-22T09:55:49.742Z,100.00
2022-11-22T09:58:34.998Z,100.00
2022-11-22T10:01:08.994Z,100.00
2022-11-22T10:03:51.217Z,100.00
2022-11-22T10:06:34.880Z,100.00
2022-11-22T10:09:10.763Z,100.00
2022-11-22T10:11:46.635Z,100.00
2022-11-22T10:14:44.767Z,100.00
2022-11-22T10:17:36.215Z,100.00
2022-11-22T10:20:24.403Z,100.00
2022-11-22T10:22:51.725Z,100.00
2022-11-22T10:25:39.963Z,100.00
2022-11-22T10:28:28.992Z,100.00
2022-11-22T10:31:20.620Z,100.00
2022-11-22T10:34:11.922Z,100.00
2022-11-22T10:36:49.563Z,100.00
2022-11-22T10:39:19.194Z,100.00
2022-11-22T10:41:58.137Z,100.00
2022-11-22T10:44:32.189Z,100.00
2022-11-22T10:47:41.964Z,100.00
2022-11-22T10:50:19.298Z,100.00
2022-11-22T10:53:03.023Z,100.00
2022-11-22T10:55:32.394Z,100.00
2022-11-22T10:58:21.801Z,100.00
2022-11-22T11:00:56.251Z,100.00
2022-11-22T11:03:29.338Z,100.00
2022-11-22T11:06:26.272Z,100.00
2022-11-22T11:10:08.933Z,100.00
2022-11-22T11:11:55.666Z,100.00
2022-11-22T11:14:36.287Z,100.00
2022-11-22T11:17:03.490Z,100.00
2022-11-22T11:19:37.247Z,100.00
2022-11-22T11:22:07.024Z,100.00
2022-11-22T11:24:40.826Z,100.00
2022-11-22T11:27:11.176Z,100.00
2022-11-22T11:29:48.055Z,100.00
2022-11-22T11:32:20.458Z,100.00
2022-11-22T11:34:57.420Z,100.00
2022-11-22T11:37:36.900Z,100.00
2022-11-22T11:40:06.335Z,100.00
2022-11-22T11:42:34.986Z,100.00
2022-11-22T11:45:28.134Z,100.00
2022-11-22T11:47:55.070Z,100.00
2022-11-22T11:50:25.066Z,100.00
2022-11-22T11:53:06.234Z,100.00
2022-11-22T11:55:37.292Z,100.00
2022-11-22T11:58:17.644Z,100.00
2022-11-22T12:00:46.921Z,100.00
2022-11-22T12:03:17.049Z,100.00
2022-11-22T12:05:44.854Z,100.00
2022-11-22T12:08:31.895Z,100.00
2022-11-22T12:11:23.292Z,100.00
2022-11-22T12:16:54.447Z,100.00
2022-11-22T12:19:44.620Z,100.00
2022-11-22T12:22:48.751Z,100.00
2022-11-22T12:25:41.802Z,100.00
2022-11-22T12:28:19.448Z,100.00
2022-11-22T12:31:02.607Z,100.00
2022-11-22T12:33:41.169Z,100.00
2022-11-22T12:36:22.346Z,100.00
2022-11-22T12:38:51.849Z,100.00
2022-11-22T12:41:23.059Z,100.00
2022-11-22T12:43:57.905Z,100.00
2022-11-22T12:46:30.531Z,100.00
2022-11-22T12:49:02.972Z,100.00
2022-11-22T12:52:16.217Z,100.00
2022-11-22T12:54:45.829Z,100.00
2022-11-22T12:57:29.019Z,100.00
2022-11-22T13:00:15.922Z,100.00
2022-11-22T13:02:58.663Z,100.00
2022-11-22T13:05:30.901Z,100.00
2022-11-22T13:08:19.112Z,100.00
2022-11-22T13:10:56.667Z,100.00
2022-11-22T13:13:28.278Z,100.00
2022-11-22T13:15:58.187Z,100.00
2022-11-22T13:18:28.122Z,100.00
2022-11-22T13:21:10.545Z,100.00
2022-11-22T13:24:21.548Z,100.00
2022-11-22T13:27:03.197Z,100.00
2022-11-22T13:29:33.560Z,100.00
2022-11-22T13:32:06.370Z,100.00
2022-11-22T13:34:36.798Z,100.00
2022-11-22T13:37:16.048Z,100.00
2022-11-22T13:39:49.986Z,100.00
2022-11-22T13:42:21.052Z,100.00
2022-11-22T13:45:08.344Z,100.00
2022-11-22T13:47:41.187Z,100.00
2022-11-22T13:50:40.150Z,100.00
2022-11-22T13:53:37.533Z,100.00
2022-11-22T13:56:20.775Z,100.00
2022-11-22T13:59:14.065Z,100.00
2022-11-22T14:01:41.003Z,100.00
2022-11-22T14:04:16.971Z,100.00
2022-11-22T14:06:52.011Z,100.00
2022-11-22T14:09:50.747Z,100.00
2022-11-22T14:12:23.600Z,100.00
2022-11-22T14:15:37.814Z,100.00
2022-11-22T14:18:35.285Z,100.00
2022-11-22T14:21:05.250Z,100.00
2022-11-22T14:23:59.722Z,100.00
2022-11-22T14:26:41.845Z,100.00
2022-11-22T14:29:27.363Z,100.00
2022-11-22T14:32:13.594Z,100.00
2022-11-22T14:35:03.745Z,100.00
2022-11-22T14:37:33.789Z,100.00
2022-11-22T14:40:04.285Z,100.00
2022-11-22T14:42:37.192Z,100.00
2022-11-22T14:45:13.051Z,100.00
2022-11-22T14:47:53.153Z,100.00
2022-11-22T14:50:34.193Z,100.00
2022-11-22T14:53:19.271Z,100.00
2022-11-22T14:55:48.167Z,100.00
2022-11-22T14:58:23.571Z,100.00
2022-11-22T15:01:12.128Z,100.00
2022-11-22T15:09:12.369Z,100.00
2022-11-22T15:09:18.386Z,100.00
2022-11-22T15:10:25.743Z,100.00
2022-11-22T15:13:01.579Z,100.00
2022-11-22T15:59:44.301Z,100.00
2022-11-22T16:02:16.190Z,100.00
2022-11-22T16:06:03.642Z,100.00
2022-11-22T16:07:49.255Z,100.00
2022-11-22T16:10:28.406Z,100.00
2022-11-22T16:12:55.199Z,100.00
2022-11-22T16:15:37.216Z,100.00
2022-11-22T16:18:14.376Z,100.00
2022-11-22T16:21:00.647Z,100.00
2022-11-22T16:23:35.372Z,100.00
2022-11-22T16:26:29.523Z,100.00
2022-11-22T16:29:11.524Z,100.00
2022-11-22T16:31:40.302Z,100.00
2022-11-22T16:34:13.752Z,100.00
2022-11-22T16:36:40.478Z,100.00
2022-11-22T16:39:07.743Z,100.00
2022-11-22T16:41:35.373Z,100.00
2022-11-22T16:44:06.505Z,100.00
2022-11-22T16:46:34.306Z,100.00
2022-11-22T16:49:01.129Z,100.00
2022-11-22T16:51:30.863Z,100.00
2022-11-22T16:54:08.138Z,100.00
2022-11-22T16:56:34.942Z,100.00
2022-11-22T16:59:01.850Z,100.00
2022-11-22T17:01:34.333Z,100.00
2022-11-22T17:04:02.928Z,100.00
2022-11-22T17:06:30.799Z,100.00
2022-11-22T17:08:59.318Z,100.00
2022-11-22T17:11:32.845Z,100.00
2022-11-22T17:14:00.190Z,100.00
2022-11-22T17:16:27.028Z,100.00
2022-11-22T17:18:53.804Z,100.00
2022-11-22T17:21:34.254Z,100.00
2022-11-22T17:24:05.633Z,100.00
2022-11-22T17:26:34.777Z,100.00
2022-11-22T17:29:01.875Z,100.00
2022-11-22T17:31:29.275Z,100.00
2022-11-22T17:33:58.454Z,99.91
2022-11-22T17:36:32.920Z,100.00
2022-11-22T17:39:01.915Z,99.74
2022-11-22T17:41:33.089Z,99.63
2022-11-22T17:44:00.241Z,99.69
2022-11-22T17:46:29.734Z,99.53
2022-11-22T17:48:58.941Z,99.47
2022-11-22T17:51:27.752Z,99.65
2022-11-22T17:53:55.053Z,99.36
2022-11-22T17:56:21.796Z,99.16
2022-11-22T17:58:48.864Z,99.69
2022-11-22T18:01:20.665Z,99.30
2022-11-22T18:03:48.427Z,99.27
2022-11-22T18:06:16.244Z,99.27
2022-11-22T18:08:46.946Z,99.45
2022-11-22T18:11:14.832Z,99.46
2022-11-22T18:13:41.924Z,99.20
2022-11-22T18:16:15.710Z,99.24
2022-11-22T18:18:58.797Z,99.30
2022-11-22T18:21:30.094Z,99.23
2022-11-22T18:24:01.175Z,99.57
2022-11-22T18:26:43.956Z,99.30
2022-11-22T18:32:01.027Z,99.15
2022-11-22T18:34:28.676Z,99.39
2022-11-22T18:37:01.472Z,99.35
2022-11-22T18:39:38.315Z,99.20
2022-11-22T18:42:07.499Z,99.22
2022-11-22T18:44:34.625Z,99.41
2022-11-22T18:47:01.830Z,99.30
2022-11-22T18:49:28.726Z,99.33
2022-11-22T18:51:55.976Z,99.49
2022-11-22T18:54:23.277Z,99.24
2022-11-22T18:56:51.175Z,99.26
2022-11-22T18:59:18.638Z,99.25
2022-11-22T19:01:46.239Z,99.36
2022-11-22T19:04:16.922Z,99.33
2022-11-22T19:06:45.169Z,99.66
2022-11-22T19:09:12.283Z,99.50
2022-11-22T19:11:39.349Z,99.70
2022-11-22T19:14:06.097Z,99.42
2022-11-22T19:16:33.045Z,99.48
2022-11-22T19:18:59.991Z,99.70
2022-11-22T19:21:30.676Z,99.65
2022-11-22T19:23:57.864Z,99.71
2022-11-22T19:26:26.973Z,99.56
2022-11-22T19:28:57.909Z,99.60
2022-11-22T19:31:27.878Z,99.35
2022-11-22T19:33:55.552Z,99.78
2022-11-22T19:36:30.780Z,99.69
2022-11-22T19:38:59.524Z,99.47
2022-11-22T19:41:26.324Z,99.71
2022-11-22T19:43:53.133Z,99.52
2022-11-22T19:46:22.910Z,99.42
2022-11-22T19:48:54.532Z,99.42
2022-11-22T19:51:22.365Z,99.30
2022-11-22T19:53:53.457Z,99.32
2022-11-22T19:56:20.727Z,99.66
2022-11-22T19:58:52.474Z,99.58
2022-11-22T20:01:21.043Z,99.73
2022-11-22T20:03:54.893Z,99.56
2022-11-22T20:06:21.682Z,99.41
2022-11-22T20:08:49.552Z,99.74
2022-11-22T20:11:19.500Z,99.46
2022-11-22T20:13:52.173Z,99.69
2022-11-22T20:16:24.949Z,99.61
2022-11-22T20:19:06.857Z,99.37
2022-11-22T20:21:34.675Z,99.40
2022-11-22T20:24:02.083Z,99.13
2022-11-22T20:26:31.211Z,99.46
2022-11-22T20:29:00.110Z,99.42
2022-11-22T20:31:29.274Z,99.05
2022-11-22T20:33:56.448Z,99.35
2022-11-22T20:36:25.787Z,99.03
2022-11-22T20:38:53.397Z,99.07
2022-11-22T20:41:26.801Z,99.23
2022-11-22T20:43:54.131Z,99.42
2022-11-22T20:46:23.636Z,99.23
2022-11-22T20:48:53.034Z,99.36
2022-11-22T20:51:22.394Z,99.00
2022-11-22T20:53:49.459Z,99.01
2022-11-22T20:56:17.271Z,99.19
2022-11-22T20:58:44.656Z,99.36
2022-11-22T21:01:16.984Z,99.40
2022-11-22T21:03:43.714Z,99.38
2022-11-22T21:06:11.886Z,99.23
2022-11-22T21:08:38.887Z,99.57
2022-11-22T21:11:29.564Z,99.13
2022-11-22T21:13:58.003Z,99.16
2022-11-22T21:16:29.351Z,99.62
2022-11-22T21:19:01.630Z,99.55
2022-11-22T21:21:29.475Z,99.34
2022-11-22T21:23:59.424Z,99.40
2022-11-22T21:26:26.987Z,99.34
2022-11-22T21:28:54.296Z,99.56
2022-11-22T21:31:22.519Z,99.39
2022-11-22T21:33:50.053Z,99.61
2022-11-22T21:36:17.664Z,99.57
2022-11-22T21:38:44.900Z,99.53
2022-11-22T21:44:05.839Z,99.44
2022-11-22T21:46:33.662Z,99.97
2022-11-22T21:49:00.419Z,99.61
2022-11-22T21:51:27.196Z,99.47
2022-11-22T21:54:04.049Z,99.85
2022-11-22T21:56:32.156Z,99.65
2022-11-22T21:58:59.295Z,99.86
2022-11-22T22:01:26.586Z,99.53
2022-11-22T22:03:54.197Z,99.91
2022-11-22T22:06:21.102Z,99.45
2022-11-22T22:08:48.166Z,99.59
2022-11-22T22:11:15.024Z,99.64
2022-11-22T22:13:41.761Z,99.64
2022-11-22T22:16:15.340Z,99.59
2022-11-22T22:18:43.562Z,99.79
2022-11-22T22:21:11.812Z,99.73
2022-11-22T22:23:39.979Z,100.00
2022-11-22T22:26:11.576Z,99.82
2022-11-22T22:28:39.375Z,100.00
2022-11-22T22:31:08.515Z,99.56
2022-11-22T22:33:37.845Z,99.58
2022-11-22T22:36:05.892Z,99.48
2022-11-22T22:38:33.658Z,100.00
2022-11-22T22:41:03.242Z,99.71
2022-11-22T22:43:32.347Z,99.56
2022-11-22T22:46:28.307Z,100.00
2022-11-22T22:48:55.155Z,99.56
2022-11-22T22:51:32.423Z,99.40
2022-11-22T22:54:00.874Z,99.72
2022-11-22T22:56:31.434Z,99.14
2022-11-22T22:59:00.957Z,99.55
2022-11-22T23:01:30.515Z,99.35
2022-11-22T23:03:59.775Z,99.42
2022-11-22T23:06:29.196Z,99.57
2022-11-22T23:08:56.558Z,99.26
2022-11-22T23:11:46.228Z,99.63
2022-11-22T23:14:16.491Z,99.35
2022-11-22T23:16:43.446Z,99.65
2022-11-22T23:19:11.223Z,99.49
2022-11-22T23:21:37.970Z,99.91
2022-11-22T23:24:05.772Z,99.39
2022-11-22T23:26:32.914Z,99.44
2022-11-22T23:29:00.218Z,99.27
2022-11-22T23:31:27.598Z,99.57
2022-11-22T23:33:54.515Z,99.17
2022-11-22T23:36:22.277Z,99.66
2022-11-22T23:38:49.259Z,99.50
2022-11-22T23:41:19.990Z,99.57
2022-11-22T23:43:47.438Z,99.43
2022-11-22T23:46:18.525Z,99.60
2022-11-22T23:48:47.016Z,99.46
2022-11-22T23:51:15.078Z,99.96
2022-11-22T23:53:41.999Z,100.00
2022-11-22T23:56:18.988Z,99.78
2022-11-22T23:58:48.330Z,99.47
